Orbital elements of COSMOS 1275 DEB
| Launched | 3 June 1981 |
| Flight ended | – |
| Launch site | Plesetsk Missile and Space Complex, Russia |
| Owner | Commonwealth of Independent States (former USSR) |
| NORAD ID | 12751 |
| Date fetched |
Epoch osculation |
Inc. [°] |
Ecc. | RA asc node [hr] |
Arg Peri. [°] |
Mean anom [°] |
Mean motion [rev/day] |
Abs. mag |
| Date fetched |
Epoch osculation |
Inc. [°] |
Ecc. | RA asc node [hr] |
Arg Peri. [°] |
Mean anom [°] |
Mean motion [rev/day] |
Abs. mag |
| 2026 May 03 17:57 | 2026 Apr 30 13:07:59 | 82.9450 | 0.00295 | 14.1714 | 75.7257 | 344.1545 | 13.81375 | – |
| 2026 May 02 17:57 | 2026 Apr 30 13:07:59 | 82.9450 | 0.00295 | 14.1714 | 75.7257 | 344.1545 | 13.81375 | – |
| 2026 May 01 17:56 | 2026 Apr 30 13:07:59 | 82.9450 | 0.00295 | 14.1714 | 75.7257 | 344.1545 | 13.81375 | – |
| 2026 Apr 30 17:56 | 2026 Apr 30 13:07:59 | 82.9450 | 0.00295 | 14.1714 | 75.7257 | 344.1545 | 13.81375 | – |
| 2026 Apr 29 17:57 | 2026 Apr 24 07:38:56 | 82.9448 | 0.00297 | 14.4822 | 92.4285 | 344.1545 | 13.81375 | – |
| 2026 Apr 28 17:56 | 2026 Apr 24 07:38:56 | 82.9448 | 0.00297 | 14.4822 | 92.4285 | 344.1545 | 13.81375 | – |
| 2026 Apr 27 17:58 | 2026 Apr 24 07:38:56 | 82.9448 | 0.00297 | 14.4822 | 92.4285 | 344.1545 | 13.81375 | – |
| 2026 Apr 26 17:58 | 2026 Apr 24 07:38:56 | 82.9448 | 0.00297 | 14.4822 | 92.4285 | 344.1545 | 13.81375 | – |
| 2026 Apr 25 17:58 | 2026 Apr 24 07:38:56 | 82.9448 | 0.00297 | 14.4822 | 92.4285 | 344.1545 | 13.81375 | – |
| 2026 Apr 24 17:59 | 2026 Apr 24 07:38:56 | 82.9448 | 0.00297 | 14.4822 | 92.4285 | 344.1545 | 13.81375 | – |
| 2026 Apr 23 17:57 | 2026 Apr 19 05:44:29 | 82.9444 | 0.00298 | 14.7357 | 105.9814 | 344.1545 | 13.81375 | – |
| 2026 Apr 22 17:57 | 2026 Apr 19 05:44:29 | 82.9444 | 0.00298 | 14.7357 | 105.9814 | 344.1545 | 13.81375 | – |
| 2026 Apr 21 17:57 | 2026 Apr 19 05:44:29 | 82.9444 | 0.00298 | 14.7357 | 105.9814 | 344.1545 | 13.81375 | – |
| 2026 Apr 20 17:57 | 2026 Apr 19 05:44:29 | 82.9444 | 0.00298 | 14.7357 | 105.9814 | 344.1545 | 13.81375 | – |
| 2026 Apr 19 17:58 | 2026 Apr 19 05:44:29 | 82.9444 | 0.00298 | 14.7357 | 105.9814 | 344.1545 | 13.81375 | – |
| 2026 Apr 18 17:56 | 2026 Apr 13 07:14:42 | 82.9438 | 0.00297 | 15.0320 | 121.8484 | 344.1545 | 13.81375 | – |
| 2026 Apr 16 17:57 | 2026 Apr 13 07:14:42 | 82.9438 | 0.00297 | 15.0320 | 121.8484 | 344.1545 | 13.81375 | – |
| 2026 Apr 14 17:57 | 2026 Apr 13 07:14:42 | 82.9438 | 0.00297 | 15.0320 | 121.8484 | 344.1545 | 13.81375 | – |
| 2026 Apr 13 17:57 | 2026 Apr 13 07:14:42 | 82.9438 | 0.00297 | 15.0320 | 121.8484 | 344.1545 | 13.81375 | – |
| 2026 Apr 12 17:57 | 2026 Apr 08 14:11:53 | 82.9430 | 0.00296 | 15.2671 | 134.4574 | 344.1545 | 13.81375 | – |
| 2026 Apr 11 17:57 | 2026 Apr 08 14:11:53 | 82.9430 | 0.00296 | 15.2671 | 134.4574 | 344.1545 | 13.81375 | – |
| 2026 Apr 10 17:58 | 2026 Apr 08 14:11:53 | 82.9430 | 0.00296 | 15.2671 | 134.4574 | 344.1545 | 13.81375 | – |
| 2026 Apr 09 18:01 | 2026 Apr 08 14:11:53 | 82.9430 | 0.00296 | 15.2671 | 134.4574 | 344.1545 | 13.81375 | – |
| 2026 Apr 08 17:57 | 2026 Apr 08 14:11:53 | 82.9430 | 0.00296 | 15.2671 | 134.4574 | 344.1545 | 13.81375 | – |
| 2026 Apr 07 17:57 | 2026 Apr 02 04:13:52 | 82.9418 | 0.00293 | 15.5873 | 151.8043 | 344.1545 | 13.81375 | – |
| 2026 Apr 06 17:57 | 2026 Apr 02 04:13:52 | 82.9418 | 0.00293 | 15.5873 | 151.8043 | 344.1545 | 13.81375 | – |